createdAt,value
2022-09-14T00:00:18.530Z,24.98
2022-09-14T00:02:44.935Z,24.93
2022-09-14T00:05:11.354Z,24.96
2022-09-14T00:07:37.693Z,24.98
2022-09-14T00:10:04.024Z,24.95
2022-09-14T00:12:30.362Z,24.94
2022-09-14T00:14:56.696Z,24.90
2022-09-14T00:17:23.053Z,24.91
2022-09-14T00:19:49.376Z,24.94
2022-09-14T00:22:15.710Z,24.88
2022-09-14T00:24:42.045Z,24.91
2022-09-14T00:27:08.365Z,24.89
2022-09-14T00:29:34.677Z,24.88
2022-09-14T00:32:01.058Z,24.90
2022-09-14T00:34:27.401Z,24.90
2022-09-14T00:36:53.737Z,24.87
2022-09-14T00:39:20.076Z,24.87
2022-09-14T00:41:46.415Z,24.91
2022-09-14T00:44:12.743Z,24.91
2022-09-14T00:46:39.076Z,24.94
2022-09-14T00:49:05.406Z,24.92
2022-09-14T00:51:31.736Z,24.92
2022-09-14T00:53:58.070Z,24.88
2022-09-14T00:56:24.401Z,24.84
2022-09-14T00:58:50.801Z,24.88
2022-09-14T01:01:17.296Z,24.89
2022-09-14T01:03:43.649Z,24.89
2022-09-14T01:06:09.971Z,24.88
2022-09-14T01:08:36.293Z,24.85
2022-09-14T01:11:02.621Z,24.90
2022-09-14T01:13:28.967Z,24.94
2022-09-14T01:15:55.313Z,24.88
2022-09-14T01:18:21.648Z,24.89
2022-09-14T01:20:47.976Z,24.89
2022-09-14T01:23:14.323Z,24.89
2022-09-14T01:25:40.666Z,24.87
2022-09-14T01:28:06.998Z,24.87
2022-09-14T01:30:33.335Z,24.91
2022-09-14T01:32:59.688Z,24.91
2022-09-14T01:35:26.016Z,24.89
2022-09-14T01:37:52.344Z,24.87
2022-09-14T01:40:18.747Z,24.86
2022-09-14T01:42:45.157Z,24.86
2022-09-14T01:45:11.493Z,24.86
2022-09-14T01:47:37.820Z,24.88
2022-09-14T01:50:04.149Z,24.90
2022-09-14T01:52:30.481Z,24.89
2022-09-14T01:54:56.814Z,24.88
2022-09-14T01:57:23.133Z,24.87
2022-09-14T01:59:49.461Z,24.86
2022-09-14T02:02:15.812Z,24.92
2022-09-14T02:04:42.554Z,24.89
2022-09-14T02:07:08.900Z,24.87
2022-09-14T02:09:35.248Z,24.86
2022-09-14T02:12:01.574Z,24.81
2022-09-14T02:14:27.892Z,24.81
2022-09-14T02:16:54.216Z,24.84
2022-09-14T02:19:23.707Z,24.83
2022-09-14T02:21:50.334Z,24.88
2022-09-14T02:24:16.689Z,24.84
2022-09-14T02:26:43.059Z,24.86
2022-09-14T02:29:09.389Z,24.84
2022-09-14T02:31:35.772Z,24.85
2022-09-14T02:34:02.105Z,24.81
2022-09-14T02:36:28.431Z,24.81
2022-09-14T02:38:54.764Z,24.82
2022-09-14T02:41:21.101Z,24.77
2022-09-14T02:43:47.463Z,24.81
2022-09-14T02:46:13.844Z,24.82
2022-09-14T02:48:40.192Z,24.80
2022-09-14T02:51:06.517Z,24.77
2022-09-14T02:53:32.862Z,24.81
2022-09-14T02:55:59.194Z,24.81
2022-09-14T02:58:25.533Z,24.79
2022-09-14T03:00:51.950Z,24.76
2022-09-14T03:03:18.298Z,24.80
2022-09-14T03:05:44.622Z,24.79
2022-09-14T03:08:10.949Z,24.79
2022-09-14T03:10:37.281Z,24.79
2022-09-14T03:13:03.636Z,24.79
2022-09-14T03:15:29.954Z,24.75
2022-09-14T03:17:56.286Z,24.78
2022-09-14T03:20:22.616Z,24.71
2022-09-14T03:22:48.946Z,24.73
2022-09-14T03:25:15.280Z,24.74
2022-09-14T03:27:41.595Z,24.75
2022-09-14T03:30:07.925Z,24.75
2022-09-14T03:32:34.243Z,24.74
2022-09-14T03:35:00.560Z,24.73
2022-09-14T03:37:26.871Z,24.73
2022-09-14T03:39:53.232Z,24.75
2022-09-14T03:42:19.607Z,24.71
2022-09-14T03:44:45.982Z,24.71
2022-09-14T03:47:12.312Z,24.75
2022-09-14T03:49:38.641Z,24.74
2022-09-14T03:52:04.973Z,24.73
2022-09-14T03:54:31.290Z,24.72
2022-09-14T03:56:57.621Z,24.76
2022-09-14T03:59:23.958Z,24.76
2022-09-14T04:01:50.323Z,24.72
2022-09-14T04:04:16.691Z,24.73
2022-09-14T04:06:43.017Z,24.73
2022-09-14T04:09:09.360Z,24.72
2022-09-14T04:11:35.688Z,24.73
2022-09-14T04:14:02.017Z,24.75
2022-09-14T04:16:28.395Z,24.78
2022-09-14T04:18:54.796Z,24.77
2022-09-14T04:21:21.121Z,24.77
2022-09-14T04:24:17.597Z,24.74
2022-09-14T04:26:33.751Z,24.77
2022-09-14T04:29:00.083Z,24.76
2022-09-14T04:31:26.548Z,24.76
2022-09-14T04:33:52.919Z,24.79
2022-09-14T04:36:19.248Z,24.82
2022-09-14T04:38:45.580Z,24.78
2022-09-14T04:41:11.911Z,24.81
2022-09-14T04:43:38.245Z,24.73
2022-09-14T04:46:04.604Z,24.78
2022-09-14T04:48:30.956Z,24.72
2022-09-14T04:50:57.286Z,24.77
2022-09-14T04:53:23.627Z,24.79
2022-09-14T04:55:49.971Z,24.81
2022-09-14T04:58:16.332Z,24.80
2022-09-14T05:00:42.658Z,24.83
2022-09-14T05:03:09.008Z,24.82
2022-09-14T05:05:35.363Z,24.82
2022-09-14T05:08:01.695Z,24.81
2022-09-14T05:10:28.033Z,24.81
2022-09-14T05:12:54.363Z,24.80
2022-09-14T05:15:20.698Z,24.81
2022-09-14T05:17:47.042Z,24.81
2022-09-14T05:20:13.374Z,24.81
2022-09-14T05:22:39.712Z,24.81
2022-09-14T05:25:06.047Z,24.81
2022-09-14T05:27:32.391Z,24.82
2022-09-14T05:29:58.715Z,24.82
2022-09-14T05:32:25.031Z,24.81
2022-09-14T05:34:51.366Z,24.80
2022-09-14T05:37:17.705Z,24.81
2022-09-14T05:39:44.094Z,24.80
2022-09-14T05:42:10.453Z,24.80
2022-09-14T05:44:36.789Z,24.81
2022-09-14T05:47:03.133Z,24.80
2022-09-14T05:49:29.460Z,24.80
2022-09-14T05:51:55.792Z,24.81
2022-09-14T05:54:22.140Z,24.79
2022-09-14T05:56:48.496Z,24.80
2022-09-14T05:59:14.846Z,24.80
2022-09-14T06:01:41.231Z,24.79
2022-09-14T06:04:07.591Z,24.80
2022-09-14T06:06:33.922Z,24.80
2022-09-14T06:09:00.281Z,24.81
2022-09-14T06:11:26.619Z,24.80
2022-09-14T06:13:53.010Z,24.79
2022-09-14T06:16:19.372Z,24.79
2022-09-14T06:18:45.713Z,24.81
2022-09-14T06:21:12.051Z,24.80
2022-09-14T06:23:38.394Z,24.79
2022-09-14T06:26:04.733Z,24.79
2022-09-14T06:28:31.094Z,24.81
2022-09-14T06:30:57.479Z,24.79
2022-09-14T06:33:23.828Z,24.80
2022-09-14T06:35:50.153Z,24.80
2022-09-14T06:38:16.480Z,24.78
2022-09-14T06:40:42.828Z,24.81
2022-09-14T06:43:09.182Z,24.80
2022-09-14T06:45:35.597Z,24.79
2022-09-14T06:48:01.940Z,24.77
2022-09-14T06:50:28.268Z,24.79
2022-09-14T06:52:54.623Z,24.78
2022-09-14T06:55:20.951Z,24.79
2022-09-14T06:57:47.289Z,24.79
2022-09-14T07:00:13.620Z,24.79
2022-09-14T07:02:39.990Z,24.79
2022-09-14T07:05:06.375Z,24.77
2022-09-14T07:07:32.720Z,24.75
2022-09-14T07:09:59.048Z,24.74
2022-09-14T07:12:25.386Z,24.75
2022-09-14T07:14:51.746Z,24.75
2022-09-14T07:17:18.070Z,24.75
2022-09-14T07:19:44.410Z,24.75
2022-09-14T07:22:10.737Z,24.75
2022-09-14T07:24:37.077Z,24.74
2022-09-14T07:27:03.418Z,24.73
2022-09-14T07:29:29.755Z,24.74
2022-09-14T07:31:56.096Z,24.75
2022-09-14T07:34:22.429Z,24.75
2022-09-14T07:36:48.752Z,24.76
2022-09-14T07:39:15.071Z,24.75
2022-09-14T07:41:41.403Z,24.75
2022-09-14T07:44:07.737Z,24.75
2022-09-14T07:46:34.071Z,24.74
2022-09-14T07:49:00.428Z,24.74
2022-09-14T07:51:26.747Z,24.77
2022-09-14T07:53:53.097Z,24.77
2022-09-14T07:56:19.440Z,24.77
2022-09-14T07:58:45.790Z,24.76
2022-09-14T08:01:12.182Z,24.79
2022-09-14T08:03:38.628Z,24.77
2022-09-14T08:06:04.969Z,24.76
2022-09-14T08:08:31.326Z,24.78
2022-09-14T08:10:57.653Z,24.76
2022-09-14T08:13:23.985Z,24.77
2022-09-14T08:15:50.316Z,24.79
2022-09-14T08:18:16.684Z,24.77
2022-09-14T08:20:43.025Z,24.76
2022-09-14T08:23:09.359Z,24.75
2022-09-14T08:25:35.676Z,24.77
2022-09-14T08:28:02.002Z,24.75
2022-09-14T08:30:28.331Z,24.79
2022-09-14T08:32:55.727Z,24.78
2022-09-14T08:35:53.656Z,24.77
2022-09-14T08:38:10.537Z,24.75
2022-09-14T08:40:36.904Z,24.77
2022-09-14T08:43:03.247Z,24.77
2022-09-14T08:45:29.641Z,24.79
2022-09-14T08:47:56.063Z,24.78
2022-09-14T08:50:22.392Z,24.77
2022-09-14T08:52:48.736Z,24.75
2022-09-14T08:55:15.065Z,24.75
2022-09-14T08:57:41.400Z,24.74
2022-09-14T09:00:07.748Z,24.75
2022-09-14T09:02:34.086Z,24.75
2022-09-14T09:05:00.428Z,24.76
2022-09-14T09:07:26.760Z,24.75
2022-09-14T09:09:53.101Z,24.73
2022-09-14T09:12:19.447Z,24.76
2022-09-14T09:14:45.782Z,24.75
2022-09-14T09:17:12.143Z,24.76
2022-09-14T09:19:38.479Z,24.75
2022-09-14T09:22:04.814Z,24.75
2022-09-14T09:24:34.128Z,24.76
2022-09-14T09:27:02.784Z,24.77
2022-09-14T09:29:29.105Z,24.78
2022-09-14T09:31:55.495Z,24.78
2022-09-14T09:34:21.853Z,24.79
2022-09-14T09:36:48.176Z,24.78
2022-09-14T09:39:14.506Z,24.79
2022-09-14T09:41:40.821Z,24.78
2022-09-14T09:44:07.159Z,24.78
2022-09-14T09:46:33.525Z,24.79
2022-09-14T09:48:59.886Z,24.79
2022-09-14T09:51:26.237Z,24.79
2022-09-14T09:53:52.565Z,24.78
2022-09-14T09:56:18.892Z,24.81
2022-09-14T09:58:45.255Z,24.84
2022-09-14T10:01:12.539Z,24.87
2022-09-14T10:03:39.038Z,24.89
2022-09-14T10:06:05.379Z,24.95
2022-09-14T10:08:31.707Z,24.93
2022-09-14T10:10:58.039Z,24.96
2022-09-14T10:13:24.370Z,24.95
2022-09-14T10:15:50.748Z,24.95
2022-09-14T10:18:17.131Z,24.95
2022-09-14T10:20:43.469Z,24.94
2022-09-14T10:23:09.804Z,24.91
2022-09-14T10:25:36.137Z,24.91
2022-09-14T10:28:02.469Z,24.91
2022-09-14T10:30:28.810Z,24.90
2022-09-14T10:32:55.151Z,24.92
2022-09-14T10:35:21.478Z,24.90
2022-09-14T10:37:47.808Z,24.89
2022-09-14T10:40:14.178Z,24.87
2022-09-14T10:42:40.544Z,24.87
2022-09-14T10:45:06.885Z,24.86
2022-09-14T10:47:33.226Z,24.85
2022-09-14T10:49:59.540Z,24.84
2022-09-14T10:52:25.876Z,24.84
2022-09-14T10:54:53.439Z,24.84
2022-09-14T10:57:20.695Z,24.84
2022-09-14T10:59:47.012Z,24.86
2022-09-14T11:02:13.443Z,24.89
2022-09-14T11:04:39.876Z,24.90
2022-09-14T11:07:06.197Z,24.97
2022-09-14T11:09:32.528Z,24.96
2022-09-14T11:11:58.873Z,25.00
2022-09-14T11:14:25.202Z,24.99
2022-09-14T11:16:51.534Z,25.04
2022-09-14T11:19:17.874Z,25.03
2022-09-14T11:21:44.210Z,25.01
2022-09-14T11:24:10.545Z,24.99
2022-09-14T11:26:41.571Z,25.02
2022-09-14T11:29:08.593Z,25.04
2022-09-14T11:31:35.031Z,25.05
2022-09-14T11:34:01.421Z,25.07
2022-09-14T11:36:27.747Z,25.07
2022-09-14T11:38:54.087Z,25.09
2022-09-14T11:41:20.427Z,25.09
2022-09-14T11:43:46.775Z,25.08
2022-09-14T11:46:13.156Z,25.13
2022-09-14T11:48:42.693Z,25.14
2022-09-14T11:51:09.638Z,25.14
2022-09-14T11:53:35.966Z,25.12
2022-09-14T11:56:02.287Z,25.12
2022-09-14T11:58:28.612Z,25.16
2022-09-14T12:00:54.943Z,25.13
2022-09-14T12:03:21.346Z,25.16
2022-09-14T12:05:47.759Z,25.19
2022-09-14T12:08:14.087Z,25.16
2022-09-14T12:10:43.992Z,25.18
2022-09-14T12:13:12.150Z,25.19
2022-09-14T12:15:38.501Z,25.20
2022-09-14T12:18:04.915Z,25.17
2022-09-14T12:20:31.228Z,25.19
2022-09-14T12:22:57.568Z,25.21
2022-09-14T12:25:23.901Z,25.17
2022-09-14T12:27:50.226Z,25.20
2022-09-14T12:30:16.563Z,25.22
2022-09-14T12:32:42.937Z,25.23
2022-09-14T12:35:09.261Z,25.22
2022-09-14T12:37:35.593Z,25.26
2022-09-14T12:40:02.006Z,25.30
2022-09-14T12:42:28.372Z,25.28
2022-09-14T12:44:54.714Z,25.26
2022-09-14T12:47:21.055Z,25.29
2022-09-14T12:49:47.379Z,25.29
2022-09-14T12:52:13.720Z,25.36
2022-09-14T12:54:40.052Z,25.36
2022-09-14T12:57:06.382Z,25.38
2022-09-14T12:59:32.709Z,25.39
2022-09-14T13:01:59.163Z,25.32
2022-09-14T13:04:25.557Z,25.34
2022-09-14T13:06:51.889Z,25.32
2022-09-14T13:09:18.221Z,25.34
2022-09-14T13:11:44.570Z,25.30
2022-09-14T13:14:10.901Z,25.28
2022-09-14T13:16:37.245Z,25.23
2022-09-14T13:19:03.573Z,25.20
2022-09-14T13:21:29.902Z,25.21
2022-09-14T13:23:56.233Z,25.19
2022-09-14T13:26:22.554Z,25.26
2022-09-14T13:28:48.876Z,25.28
2022-09-14T13:31:15.236Z,25.29
2022-09-14T13:33:41.612Z,25.23
2022-09-14T13:36:07.955Z,25.35
2022-09-14T13:38:34.308Z,25.34
2022-09-14T13:41:00.637Z,25.38
2022-09-14T13:43:26.987Z,25.34
2022-09-14T13:45:53.381Z,25.33
2022-09-14T13:48:19.755Z,25.32
2022-09-14T13:50:46.081Z,25.34
2022-09-14T13:53:12.408Z,25.33
2022-09-14T13:55:38.741Z,25.30
2022-09-14T13:58:05.076Z,25.29
2022-09-14T14:00:31.421Z,25.23
2022-09-14T14:02:57.857Z,25.21
2022-09-14T14:05:24.360Z,25.20
2022-09-14T14:07:50.697Z,25.21
2022-09-14T14:10:20.443Z,25.23
2022-09-14T14:12:50.648Z,25.22
2022-09-14T14:15:17.281Z,25.21
2022-09-14T14:17:43.620Z,25.20
2022-09-14T14:20:09.952Z,25.20
2022-09-14T14:22:36.318Z,25.18
2022-09-14T14:25:13.300Z,25.16
2022-09-14T14:27:40.384Z,25.18
2022-09-14T14:30:06.714Z,25.18
2022-09-14T14:32:33.054Z,25.18
2022-09-14T14:34:59.383Z,25.18
2022-09-14T14:37:25.717Z,25.19
2022-09-14T14:39:52.107Z,25.16
2022-09-14T14:42:18.462Z,25.17
2022-09-14T14:44:44.788Z,25.15
2022-09-14T14:47:11.117Z,25.14
2022-09-14T14:49:37.449Z,25.14
2022-09-14T14:52:03.825Z,25.12
2022-09-14T14:54:30.163Z,25.12
2022-09-14T14:56:56.492Z,25.12
2022-09-14T14:59:22.819Z,25.11
2022-09-14T15:01:49.153Z,25.11
2022-09-14T15:04:15.489Z,25.12
2022-09-14T15:06:41.804Z,25.11
2022-09-14T15:09:08.128Z,25.13
2022-09-14T15:11:34.470Z,25.10
2022-09-14T15:14:00.806Z,25.11
2022-09-14T15:16:27.154Z,25.09
2022-09-14T15:18:53.504Z,25.08
2022-09-14T15:21:19.825Z,25.09
2022-09-14T15:23:46.157Z,25.09
2022-09-14T15:26:12.484Z,25.10
2022-09-14T15:28:38.820Z,25.10
2022-09-14T15:31:07.844Z,25.10
2022-09-14T15:33:34.466Z,25.07
2022-09-14T15:36:00.802Z,25.08
2022-09-14T15:38:27.136Z,25.07
2022-09-14T15:40:53.465Z,25.10
2022-09-14T15:43:19.814Z,25.09
2022-09-14T15:45:46.196Z,25.09
2022-09-14T15:48:12.568Z,25.06
2022-09-14T15:50:38.892Z,25.04
2022-09-14T15:53:05.224Z,25.04
2022-09-14T15:55:31.574Z,25.02
2022-09-14T15:57:57.911Z,25.03
2022-09-14T16:00:24.248Z,25.04
2022-09-14T16:02:50.587Z,25.03
2022-09-14T16:05:16.920Z,25.03
2022-09-14T16:07:43.250Z,25.01
2022-09-14T16:10:09.581Z,25.01
2022-09-14T16:12:35.901Z,25.01
2022-09-14T16:15:02.234Z,25.02
2022-09-14T16:17:28.550Z,25.03
2022-09-14T16:19:56.004Z,25.00
2022-09-14T16:22:22.391Z,25.02
2022-09-14T16:24:48.711Z,25.02
2022-09-14T16:27:15.077Z,25.00
2022-09-14T16:29:41.408Z,24.99
2022-09-14T16:32:07.782Z,25.00
2022-09-14T16:34:34.166Z,24.99
2022-09-14T16:37:00.485Z,25.01
2022-09-14T16:39:26.807Z,25.01
2022-09-14T16:41:53.140Z,24.99
2022-09-14T16:44:19.474Z,25.01
2022-09-14T16:46:45.810Z,24.99
2022-09-14T16:49:12.138Z,25.00
2022-09-14T16:51:38.468Z,24.98
2022-09-14T16:54:04.803Z,24.98
2022-09-14T16:56:31.125Z,25.01
2022-09-14T16:58:57.466Z,24.97
2022-09-14T17:01:23.917Z,24.96
2022-09-14T17:03:50.469Z,24.95
2022-09-14T17:06:16.878Z,24.97
2022-09-14T17:08:44.107Z,24.97
2022-09-14T17:11:10.523Z,24.95
2022-09-14T17:13:36.857Z,24.96
2022-09-14T17:16:03.258Z,24.95
2022-09-14T17:18:29.614Z,24.92
2022-09-14T17:20:55.941Z,24.94
2022-09-14T17:23:22.278Z,24.94
2022-09-14T17:25:48.608Z,24.92
2022-09-14T17:28:14.943Z,24.94
2022-09-14T17:30:41.279Z,24.92
2022-09-14T17:33:07.605Z,24.92
2022-09-14T17:35:33.938Z,24.94
2022-09-14T17:38:00.264Z,24.94
2022-09-14T17:40:26.615Z,24.94
2022-09-14T17:42:52.990Z,24.92
2022-09-14T17:45:19.320Z,24.93
2022-09-14T17:47:45.672Z,24.92
2022-09-14T17:50:12.000Z,24.92
2022-09-14T17:52:38.328Z,24.90
2022-09-14T17:55:04.646Z,24.92
2022-09-14T17:57:30.976Z,24.92
2022-09-14T17:59:57.304Z,24.94
2022-09-14T18:02:23.652Z,24.91
2022-09-14T18:04:49.986Z,24.91
2022-09-14T18:07:16.322Z,24.94
2022-09-14T18:09:42.676Z,24.91
2022-09-14T18:12:09.009Z,24.91
2022-09-14T18:14:35.342Z,24.91
2022-09-14T18:17:01.664Z,24.90
2022-09-14T18:19:27.979Z,24.90
2022-09-14T18:21:54.303Z,24.93
2022-09-14T18:24:20.635Z,24.93
2022-09-14T18:26:46.973Z,25.05
2022-09-14T18:29:13.314Z,24.99
2022-09-14T18:31:39.681Z,24.97
2022-09-14T18:34:06.047Z,24.98
2022-09-14T18:36:32.394Z,24.94
2022-09-14T18:38:58.802Z,24.96
2022-09-14T18:41:25.186Z,24.97
2022-09-14T18:43:51.604Z,24.99
2022-09-14T18:46:24.498Z,24.95
2022-09-14T18:48:54.120Z,25.00
2022-09-14T18:51:20.458Z,24.98
2022-09-14T18:53:46.900Z,24.97
2022-09-14T18:56:13.300Z,24.99
2022-09-14T18:58:39.643Z,24.99
2022-09-14T19:01:06.089Z,24.95
2022-09-14T19:03:32.492Z,24.97
2022-09-14T19:05:58.829Z,24.97
2022-09-14T19:08:25.157Z,24.88
2022-09-14T19:10:51.492Z,24.97
2022-09-14T19:13:17.816Z,24.97
2022-09-14T19:15:44.268Z,24.99
2022-09-14T19:18:10.607Z,24.99
2022-09-14T19:21:02.064Z,25.01
2022-09-14T19:23:23.259Z,24.99
2022-09-14T19:25:49.601Z,24.97
2022-09-14T19:28:15.935Z,24.98
2022-09-14T19:30:42.272Z,25.00
2022-09-14T19:33:08.630Z,24.99
2022-09-14T19:35:34.972Z,24.98
2022-09-14T19:38:01.301Z,24.90
2022-09-14T19:40:27.740Z,24.95
2022-09-14T19:42:54.189Z,24.96
2022-09-14T19:45:20.541Z,24.92
2022-09-14T19:47:46.872Z,24.67
2022-09-14T19:50:13.215Z,24.97
2022-09-14T19:52:39.549Z,25.01
2022-09-14T19:55:05.872Z,25.07
2022-09-14T19:57:32.193Z,25.11
2022-09-14T19:59:58.513Z,25.09
2022-09-14T20:02:24.970Z,25.10
2022-09-14T20:04:51.401Z,25.14
2022-09-14T20:07:17.735Z,25.16
2022-09-14T20:09:44.065Z,25.18
2022-09-14T20:12:10.396Z,25.17
2022-09-14T20:14:36.742Z,25.21
2022-09-14T20:17:03.083Z,25.16
2022-09-14T20:19:29.408Z,25.18
2022-09-14T20:21:55.739Z,25.19
2022-09-14T20:24:22.272Z,25.19
2022-09-14T20:26:48.830Z,25.20
2022-09-14T20:29:15.169Z,25.23
2022-09-14T20:31:41.516Z,25.22
2022-09-14T20:34:07.857Z,25.21
2022-09-14T20:36:34.187Z,25.21
2022-09-14T20:39:00.528Z,25.22
2022-09-14T20:41:26.866Z,25.18
2022-09-14T20:43:53.197Z,25.17
2022-09-14T20:46:19.573Z,25.16
2022-09-14T20:48:45.946Z,25.13
2022-09-14T20:51:12.287Z,25.14
2022-09-14T20:53:38.613Z,25.14
2022-09-14T20:56:04.939Z,25.18
2022-09-14T20:58:31.282Z,25.16
2022-09-14T21:00:57.599Z,25.18
2022-09-14T21:03:23.944Z,25.17
2022-09-14T21:05:50.272Z,25.17
2022-09-14T21:08:16.606Z,25.18
2022-09-14T21:10:42.937Z,25.15
2022-09-14T21:13:09.283Z,25.16
2022-09-14T21:15:35.663Z,25.10
2022-09-14T21:18:02.017Z,25.11
2022-09-14T21:20:28.391Z,25.08
2022-09-14T21:22:54.727Z,25.07
2022-09-14T21:25:21.093Z,25.05
2022-09-14T21:27:47.434Z,25.04
2022-09-14T21:30:13.758Z,25.02
2022-09-14T21:32:40.094Z,25.00
2022-09-14T21:35:06.429Z,24.99
2022-09-14T21:37:32.754Z,25.00
2022-09-14T21:39:59.122Z,24.97
2022-09-14T21:42:25.498Z,24.93
2022-09-14T21:44:51.900Z,24.97
2022-09-14T21:47:18.223Z,24.95
2022-09-14T21:49:44.569Z,24.92
2022-09-14T21:52:10.891Z,24.92
2022-09-14T21:54:37.223Z,24.93
2022-09-14T21:57:03.557Z,24.96
2022-09-14T21:59:29.880Z,24.94
2022-09-14T22:01:56.255Z,24.91
2022-09-14T22:04:22.627Z,24.95
2022-09-14T22:06:48.965Z,24.92
2022-09-14T22:09:15.305Z,24.91
2022-09-14T22:11:41.639Z,24.92
2022-09-14T22:14:07.956Z,24.92
2022-09-14T22:16:34.287Z,24.90
2022-09-14T22:19:00.617Z,24.92
2022-09-14T22:21:26.940Z,24.91
2022-09-14T22:23:53.273Z,24.90
2022-09-14T22:26:19.605Z,24.91
2022-09-14T22:28:45.937Z,24.91
2022-09-14T22:31:12.291Z,24.92
2022-09-14T22:33:38.658Z,24.89
2022-09-14T22:36:05.017Z,24.89
2022-09-14T22:38:31.348Z,24.92
2022-09-14T22:40:57.677Z,24.91
2022-09-14T22:43:24.006Z,24.93
2022-09-14T22:45:50.409Z,24.85
2022-09-14T22:48:16.774Z,24.84
2022-09-14T22:50:43.106Z,24.83
2022-09-14T22:53:09.437Z,24.83
2022-09-14T22:55:35.777Z,24.80
2022-09-14T22:58:02.117Z,24.83
2022-09-14T23:00:28.445Z,24.79
2022-09-14T23:02:54.881Z,24.78
2022-09-14T23:05:21.289Z,24.82
2022-09-14T23:07:47.626Z,24.86
2022-09-14T23:10:13.957Z,24.84
2022-09-14T23:12:40.289Z,24.81
2022-09-14T23:15:06.648Z,24.82
2022-09-14T23:17:32.987Z,24.84
2022-09-14T23:19:59.361Z,24.83
2022-09-14T23:22:25.760Z,24.80
2022-09-14T23:24:52.127Z,24.81
2022-09-14T23:27:18.451Z,24.81
2022-09-14T23:29:44.790Z,24.81
2022-09-14T23:32:11.121Z,24.77
2022-09-14T23:34:37.458Z,24.77
2022-09-14T23:37:03.784Z,24.77
2022-09-14T23:39:30.113Z,24.79
2022-09-14T23:41:56.437Z,24.79
2022-09-14T23:44:22.784Z,24.78
2022-09-14T23:46:49.114Z,24.77
2022-09-14T23:49:15.458Z,24.75
2022-09-14T23:51:41.793Z,24.75
2022-09-14T23:54:08.121Z,24.74
2022-09-14T23:56:34.448Z,24.73
2022-09-14T23:59:00.777Z,24.73
